Terminal Aerodrome Forecast
Issued by NWS

Home | Current Version | Previous Version | Text Only | Print | Product List | Glossary On
Versions: 1 2 3 4 5 6 7 8 9
000
FTUS45 KREV 281100
TAFMMH
TAF
KMMH 281120Z 2812/2912 VRB04KT P6SM BKN140
     FM282100 26012G22KT P6SM FEW060
     FM290400 29011KT P6SM SKC
      AMD NOT SKED 2812/2814=

USA.gov is the U.S. government's official web portal to all federal, state and local government web resources and services.